Time;durP1;ratioP1;P1;durP2;ratioP2;P2;SDS_P1;SDS_P2;PMS_P1;PMS_P2;Temp;Humidity;BMP_temperature;BMP_pressure;BME280_temperature;BME280_humidity;BME280_pressure;Samples;Min_cycle;Max_cycle;Signal;HPM_P1;HPM_P2
2021/03/13 00:01:14;;;;;;;;;75.75;59.50;;;;;-142.71;100.00;64517.53;3725544;37;21516;-55
2021/03/13 00:03:41;;;;;;;;;75.25;58.50;;;;;-142.71;100.00;64517.53;3726381;37;18555;-58
2021/03/13 00:06:10;;;;;;;;;75.50;57.25;;;;;-142.71;100.00;64517.53;3725559;38;21523;-56
2021/03/13 00:08:42;;;;;;;;;75.75;58.00;;;;;-142.71;100.00;64517.53;3725414;38;18560;-56
2021/03/13 00:11:11;;;;;;;;;73.50;56.00;;;;;-142.71;100.00;64517.53;3725407;38;21495;-58
2021/03/13 00:13:43;;;;;;;;;62.75;52.25;;;;;-142.71;100.00;64517.53;3725141;38;21600;-56
2021/03/13 00:16:17;;;;;;;;;83.25;61.00;;;;;-142.71;100.00;64517.53;3724982;38;21489;-57
2021/03/13 00:18:44;;;;;;;;;75.50;53.25;;;;;-142.71;100.00;64517.53;3725365;37;18527;-58
2021/03/13 00:21:11;;;;;;;;;73.25;54.50;;;;;-142.71;100.00;64517.53;3725209;37;21496;-56
2021/03/13 00:23:38;;;;;;;;;75.50;52.50;;;;;-142.71;100.00;64517.53;3725126;38;18548;-58
2021/03/13 00:26:04;;;;;;;;;77.25;56.75;;;;;-142.71;100.00;64517.53;3725310;37;18535;-57
2021/03/13 00:28:37;;;;;;;;;76.75;55.25;;;;;-142.71;100.00;64517.53;3725209;38;21462;-56
2021/03/13 00:31:06;;;;;;;;;72.75;54.50;;;;;-142.71;100.00;64517.53;3724818;37;21826;-58
2021/03/13 00:33:36;;;;;;;;;75.00;56.25;;;;;-142.71;100.00;64517.53;3725319;37;21458;-57
2021/03/13 00:36:04;;;;;;;;;76.50;59.25;;;;;-142.71;100.00;64517.53;3725280;37;21472;-56
2021/03/13 00:38:30;;;;;;;;;78.50;59.25;;;;;-142.71;100.00;64517.53;3725038;37;21473;-56
2021/03/13 00:40:57;;;;;;;;;77.50;60.50;;;;;-142.71;100.00;64517.53;3725262;38;18508;-57
2021/03/13 00:43:24;;;;;;;;;82.50;62.25;;;;;-142.71;100.00;64517.53;3724738;37;18525;-58
2021/03/13 00:45:51;;;;;;;;;76.50;59.50;;;;;-142.71;100.00;64517.53;3724883;38;18523;-57
2021/03/13 00:48:18;;;;;;;;;76.25;56.25;;;;;-142.71;100.00;64517.53;3725308;37;18520;-57
2021/03/13 00:50:48;;;;;;;;;83.75;59.50;;;;;-142.71;100.00;64517.53;3725313;37;18487;-57
2021/03/13 00:53:18;;;;;;;;;78.75;60.25;;;;;-142.71;100.00;64517.53;3724859;38;21465;-56
2021/03/13 00:55:44;;;;;;;;;79.75;63.75;;;;;-142.71;100.00;64517.53;3725549;38;18482;-56
2021/03/13 00:58:14;;;;;;;;;84.75;57.75;;;;;-142.71;100.00;64517.53;3725436;38;18491;-58
2021/03/13 01:00:40;;;;;;;;;79.50;62.50;;;;;-142.71;100.00;64517.53;3724967;37;18493;-56
2021/03/13 01:03:07;;;;;;;;;98.50;73.00;;;;;-142.71;100.00;64517.53;3725355;38;18496;-56
2021/03/13 01:05:36;;;;;;;;;101.00;70.75;;;;;-142.71;100.00;64517.53;3725349;37;18472;-59
2021/03/13 01:08:05;;;;;;;;;85.50;66.50;;;;;-142.71;100.00;64517.53;3724821;38;18477;-58
2021/03/13 01:10:35;;;;;;;;;85.75;64.25;;;;;-142.71;100.00;64517.53;3725449;37;18477;-57
2021/03/13 01:13:03;;;;;;;;;86.25;61.00;;;;;-142.71;100.00;64517.53;3725393;37;18487;-57
2021/03/13 01:15:30;;;;;;;;;87.00;64.50;;;;;-142.71;100.00;64517.53;3724687;38;18458;-58
2021/03/13 01:17:57;;;;;;;;;86.50;63.75;;;;;-142.71;100.00;64517.53;3725230;37;18482;-57
2021/03/13 01:20:25;;;;;;;;;83.75;63.25;;;;;-142.71;100.00;64517.53;3725292;38;18477;-57
2021/03/13 01:22:53;;;;;;;;;82.75;64.00;;;;;-142.71;100.00;64517.53;3725629;38;18469;-57
2021/03/13 01:25:20;;;;;;;;;87.75;65.75;;;;;-142.71;100.00;64517.53;3725377;38;18458;-58
2021/03/13 01:27:47;;;;;;;;;91.25;65.75;;;;;-142.71;100.00;64517.53;3724753;38;18464;-56
2021/03/13 01:30:17;;;;;;;;;92.75;69.25;;;;;-142.71;100.00;64517.53;3725288;38;18464;-56
2021/03/13 01:32:43;;;;;;;;;90.00;66.25;;;;;-142.71;100.00;64517.53;3725261;38;18453;-58
2021/03/13 01:35:12;;;;;;;;;92.75;67.00;;;;;-142.71;100.00;64517.53;3725289;38;18449;-56
2021/03/13 01:37:43;;;;;;;;;86.50;65.00;;;;;-142.71;100.00;64517.53;3727924;37;18442;-56
2021/03/13 01:40:16;;;;;;;;;96.00;68.50;;;;;-142.71;100.00;64517.53;3730935;37;18423;-56
2021/03/13 01:42:53;;;;;;;;;100.25;71.00;;;;;-142.71;100.00;64517.53;3727975;37;18423;-56
2021/03/13 01:45:24;;;;;;;;;87.75;64.25;;;;;-142.71;100.00;64517.53;3727494;38;18437;-56
2021/03/13 01:47:52;;;;;;;;;87.25;65.75;;;;;-142.71;100.00;64517.53;3730812;38;18415;-57
2021/03/13 01:50:19;;;;;;;;;87.25;63.75;;;;;-142.71;100.00;64517.53;3731336;37;18410;-56
2021/03/13 01:52:50;;;;;;;;;89.00;65.25;;;;;-142.71;100.00;64517.53;3726297;37;18394;-57
2021/03/13 01:55:21;;;;;;;;;88.75;67.50;;;;;-142.71;100.00;64517.53;3725332;37;18426;-57
2021/03/13 01:57:47;;;;;;;;;97.50;70.50;;;;;-142.71;100.00;64517.53;3725487;37;18391;-56
2021/03/13 02:00:18;;;;;;;;;95.25;70.25;;;;;-142.71;100.00;64517.53;3725306;38;18385;-58
2021/03/13 02:02:45;;;;;;;;;93.75;69.50;;;;;-142.71;100.00;64517.53;3725350;37;18395;-57
2021/03/13 02:05:26;;;;;;;;;92.75;66.25;;;;;-142.71;100.00;64517.53;3725374;38;18401;-56
2021/03/13 02:08:25;;;;;;;;;84.75;64.00;;;;;-142.71;100.00;64517.53;3724778;38;18383;-58
2021/03/13 02:11:18;;;;;;;;;96.75;70.00;;;;;-142.71;100.00;64517.53;3725269;37;18388;-58
2021/03/13 02:14:25;;;;;;;;;67.75;54.25;;;;;-142.71;100.00;64517.53;3724909;38;18389;-58
2021/03/13 02:17:14;;;;;;;;;89.50;66.75;;;;;-142.71;100.00;64517.53;3724919;38;18407;-57
2021/03/13 02:20:41;;;;;;;;;87.75;66.25;;;;;-142.71;100.00;64517.53;3724883;38;18397;-57
2021/03/13 02:23:10;;;;;;;;;71.75;53.00;;;;;-142.71;100.00;64517.53;3725471;38;18335;-56
2021/03/13 02:26:17;;;;;;;;;85.25;64.75;;;;;-142.71;100.00;64517.53;3725290;37;18352;-55
2021/03/13 02:28:56;;;;;;;;;81.25;64.00;;;;;-142.71;100.00;64517.53;3725015;38;18347;-55
2021/03/13 02:31:25;;;;;;;;;87.25;62.50;;;;;-142.71;100.00;64517.53;3725296;37;18371;-57
2021/03/13 02:33:59;;;;;;;;;73.50;57.75;;;;;-142.71;100.00;64517.53;3725267;38;18374;-55
2021/03/13 02:36:27;;;;;;;;;77.50;61.50;;;;;-142.71;100.00;64517.53;3725098;38;21295;-58
2021/03/13 02:38:59;;;;;;;;;82.00;63.00;;;;;-142.71;100.00;64517.53;3724694;38;18346;-58
2021/03/13 02:41:39;;;;;;;;;83.00;60.75;;;;;-142.71;100.00;64517.53;3725321;37;18346;-55
2021/03/13 02:44:09;;;;;;;;;81.50;60.25;;;;;-142.71;100.00;64517.53;3724972;37;18339;-57
2021/03/13 02:46:43;;;;;;;;;85.00;60.50;;;;;-142.71;100.00;64517.53;3725364;37;18323;-56
2021/03/13 02:49:12;;;;;;;;;89.00;61.00;;;;;-142.71;100.00;64517.53;3725383;37;18324;-58
2021/03/13 02:51:41;;;;;;;;;77.25;57.00;;;;;-142.71;100.00;64517.53;3725462;37;18339;-56
2021/03/13 02:54:09;;;;;;;;;86.00;62.75;;;;;-142.71;100.00;64517.53;3725219;37;21266;-57
2021/03/13 02:56:38;;;;;;;;;83.75;64.75;;;;;-142.71;100.00;64517.53;3725560;37;18324;-58
2021/03/13 02:59:06;;;;;;;;;84.50;63.00;;;;;-142.71;100.00;64517.53;3725333;37;18327;-56
2021/03/13 03:01:35;;;;;;;;;85.25;61.50;;;;;-142.71;100.00;64517.53;3725007;38;18329;-56
2021/03/13 03:04:03;;;;;;;;;89.00;64.00;;;;;-142.71;100.00;64517.53;3724786;37;18324;-56
2021/03/13 03:06:33;;;;;;;;;81.50;63.25;;;;;-142.71;100.00;64517.53;3725204;37;18303;-56
2021/03/13 03:09:01;;;;;;;;;89.50;61.50;;;;;-142.71;100.00;64517.53;3724777;37;18324;-58
2021/03/13 03:11:28;;;;;;;;;85.25;56.00;;;;;-142.71;100.00;64517.53;3724836;38;18300;-57
2021/03/13 03:13:55;;;;;;;;;80.75;58.00;;;;;-142.71;100.00;64517.53;3724994;38;18289;-56
2021/03/13 03:16:24;;;;;;;;;71.00;56.75;;;;;-142.71;100.00;64517.53;3725451;38;18295;-57
2021/03/13 03:18:55;;;;;;;;;76.00;56.75;;;;;-142.71;100.00;64517.53;3725274;38;18309;-56
2021/03/13 03:21:22;;;;;;;;;76.00;57.75;;;;;-142.71;100.00;64517.53;3725827;37;21238;-56
2021/03/13 03:23:58;;;;;;;;;90.75;61.50;;;;;-142.71;100.00;64517.53;3725197;37;21236;-57
2021/03/13 03:26:25;;;;;;;;;81.75;60.00;;;;;-142.71;100.00;64517.53;3724943;38;18300;-60
2021/03/13 03:28:52;;;;;;;;;79.50;58.75;;;;;-142.71;100.00;64517.53;3725191;37;18283;-59
2021/03/13 03:31:20;;;;;;;;;85.50;61.75;;;;;-142.71;100.00;64517.53;3724863;38;21220;-59
2021/03/13 03:33:52;;;;;;;;;81.50;65.00;;;;;-142.71;100.00;64517.53;3724914;37;18270;-61
2021/03/13 03:36:21;;;;;;;;;86.50;59.75;;;;;-142.71;100.00;64517.53;3725367;37;18280;-58
2021/03/13 03:38:47;;;;;;;;;84.00;62.25;;;;;-142.71;100.00;64517.53;3725234;38;18290;-58
2021/03/13 03:41:15;;;;;;;;;76.75;56.25;;;;;-142.71;100.00;64517.53;3725264;38;18286;-59
2021/03/13 03:43:49;;;;;;;;;74.00;54.00;;;;;-142.71;100.00;64517.53;3725291;38;21231;-58
2021/03/13 03:46:18;;;;;;;;;93.25;66.75;;;;;-142.71;100.00;64517.53;3725711;37;18248;-58
2021/03/13 03:48:47;;;;;;;;;85.25;65.75;;;;;-142.71;100.00;64517.53;3725105;37;18243;-58
2021/03/13 03:51:16;;;;;;;;;74.00;52.75;;;;;-142.71;100.00;64517.53;3725049;37;18267;-59
2021/03/13 03:53:48;;;;;;;;;87.50;66.75;;;;;-142.71;100.00;64517.53;3724891;38;18265;-58
2021/03/13 03:56:22;;;;;;;;;88.00;64.50;;;;;-142.71;100.00;64517.53;3724972;38;18248;-59
2021/03/13 03:58:52;;;;;;;;;91.75;65.25;;;;;-142.71;100.00;64517.53;3724942;37;18252;-58
2021/03/13 04:01:22;;;;;;;;;82.25;63.25;;;;;-142.71;100.00;64517.53;3725039;37;18235;-60
2021/03/13 04:03:53;;;;;;;;;78.50;61.00;;;;;-142.71;100.00;64517.53;3724879;38;18247;-58
2021/03/13 04:06:21;;;;;;;;;69.50;52.25;;;;;-142.71;100.00;64517.53;3724929;37;18231;-58
2021/03/13 04:08:53;;;;;;;;;77.50;55.00;;;;;-142.71;100.00;64517.53;3725415;37;18240;-57
2021/03/13 04:11:23;;;;;;;;;81.50;57.75;;;;;-142.71;100.00;64517.53;3724694;37;21177;-60
2021/03/13 04:13:56;;;;;;;;;82.50;62.50;;;;;-142.71;100.00;64517.53;3724986;38;21269;-60
2021/03/13 04:16:23;;;;;;;;;86.75;63.00;;;;;-142.71;100.00;64517.53;3725674;37;18219;-60
2021/03/13 04:18:59;;;;;;;;;90.75;62.25;;;;;-142.71;100.00;64517.53;3724865;38;18212;-59
2021/03/13 04:21:28;;;;;;;;;89.50;63.50;;;;;-142.71;100.00;64517.53;3724853;38;18228;-59
2021/03/13 04:23:55;;;;;;;;;87.50;62.00;;;;;-142.71;100.00;64517.53;3725451;38;18226;-60
2021/03/13 04:26:23;;;;;;;;;78.00;60.25;;;;;-142.71;100.00;64517.53;3725273;37;18196;-58
2021/03/13 04:28:53;;;;;;;;;68.00;56.50;;;;;-142.71;100.00;64517.53;3725058;37;18227;-60
2021/03/13 04:31:32;;;;;;;;;74.75;53.00;;;;;-142.71;100.00;64517.53;3725209;38;18216;-58
2021/03/13 04:34:02;;;;;;;;;81.75;61.50;;;;;-142.71;100.00;64517.53;3725399;37;21143;-59
2021/03/13 04:36:32;;;;;;;;;85.25;61.50;;;;;-142.71;100.00;64517.53;3725355;38;18185;-58
2021/03/13 04:39:04;;;;;;;;;75.25;54.25;;;;;-142.71;100.00;64517.53;3724748;37;18181;-57
2021/03/13 04:41:38;;;;;;;;;77.00;58.50;;;;;-142.71;100.00;64517.53;3725209;38;21150;-58
2021/03/13 04:44:07;;;;;;;;;52.25;43.75;;;;;-142.71;100.00;64517.53;3725679;37;21163;-58
2021/03/13 04:46:37;;;;;;;;;66.50;48.25;;;;;-142.71;100.00;64517.53;3725539;37;21125;-59
2021/03/13 04:49:09;;;;;;;;;70.00;52.75;;;;;-142.71;100.00;64517.53;3724730;38;21121;-58
2021/03/13 04:51:38;;;;;;;;;69.75;49.00;;;;;-142.71;100.00;64517.53;3724843;37;21109;-59
2021/03/13 04:54:05;;;;;;;;;65.75;52.00;;;;;-142.71;100.00;64517.53;3724822;37;21146;-61
2021/03/13 04:56:32;;;;;;;;;67.00;49.50;;;;;-142.71;100.00;64517.53;3725324;38;21137;-60
2021/03/13 04:58:59;;;;;;;;;69.50;53.75;;;;;-142.71;100.00;64517.53;3725301;37;21133;-60
2021/03/13 05:01:25;;;;;;;;;73.25;49.25;;;;;-142.71;100.00;64517.53;3725321;38;21124;-59
2021/03/13 05:03:51;;;;;;;;;50.75;42.00;;;;;-142.71;100.00;64517.53;3725154;37;21132;-58
2021/03/13 05:06:19;;;;;;;;;44.00;42.25;;;;;-142.71;100.00;64517.53;3725292;37;21113;-59
2021/03/13 05:08:46;;;;;;;;;55.00;45.00;;;;;-142.71;100.00;64517.53;3725302;38;21093;-60
2021/03/13 05:11:16;;;;;;;;;59.50;43.50;;;;;-142.71;100.00;64517.53;3724863;38;21087;-59
2021/03/13 05:13:46;;;;;;;;;56.25;45.50;;;;;-142.71;100.00;64517.53;3724902;37;21084;-58
2021/03/13 05:16:12;;;;;;;;;66.00;50.50;;;;;-142.71;100.00;64517.53;3725113;37;21123;-59
2021/03/13 05:18:40;;;;;;;;;64.75;48.75;;;;;-142.71;100.00;64517.53;3725514;37;21110;-58
2021/03/13 05:21:06;;;;;;;;;62.75;44.00;;;;;-142.71;100.00;64517.53;3725195;38;21085;-58
2021/03/13 05:23:34;;;;;;;;;57.25;46.75;;;;;-142.71;100.00;64517.53;3725370;37;21102;-59
2021/03/13 05:26:02;;;;;;;;;58.00;44.50;;;;;-142.71;100.00;64517.53;3725784;38;21098;-59
2021/03/13 05:28:30;;;;;;;;;61.00;46.00;;;;;-142.71;100.00;64517.53;3725453;37;21084;-59
2021/03/13 05:30:57;;;;;;;;;63.75;48.50;;;;;-142.71;100.00;64517.53;3728384;37;21052;-60
2021/03/13 05:33:23;;;;;;;;;62.25;45.75;;;;;-142.71;100.00;64517.53;3731769;37;21093;-58
2021/03/13 05:35:51;;;;;;;;;56.75;47.25;;;;;-142.71;100.00;64517.53;3730951;38;21080;-59
2021/03/13 05:38:20;;;;;;;;;49.50;42.00;;;;;-142.71;100.00;64517.53;3736236;38;21083;-58
2021/03/13 05:40:47;;;;;;;;;59.50;47.75;;;;;-142.71;100.00;64517.53;3735044;37;21058;-59
2021/03/13 05:43:16;;;;;;;;;71.75;52.75;;;;;-142.71;100.00;64517.53;3736904;38;21068;-59
2021/03/13 05:45:46;;;;;;;;;67.50;51.00;;;;;-142.71;100.00;64517.53;3730480;37;21068;-61
2021/03/13 05:48:14;;;;;;;;;68.25;51.25;;;;;-142.71;100.00;64517.53;3725624;37;21055;-58
2021/03/13 05:50:43;;;;;;;;;76.25;53.00;;;;;-142.71;100.00;64517.53;3725556;38;21059;-60
2021/03/13 05:53:11;;;;;;;;;65.50;48.50;;;;;-142.71;100.00;64517.53;3725374;37;21056;-58
2021/03/13 05:55:42;;;;;;;;;65.50;49.50;;;;;-142.71;100.00;64517.53;3725471;38;21048;-60
2021/03/13 05:58:09;;;;;;;;;63.50;51.50;;;;;-142.71;100.00;64517.53;3725431;38;21371;-59
2021/03/13 06:00:37;;;;;;;;;64.75;51.75;;;;;-142.71;100.00;64517.53;3725088;37;21042;-58
2021/03/13 06:03:04;;;;;;;;;64.00;51.50;;;;;-142.71;100.00;64517.53;3725416;37;21030;-58
2021/03/13 06:05:32;;;;;;;;;60.25;46.50;;;;;-142.71;100.00;64517.53;3725441;37;21013;-60
2021/03/13 06:08:00;;;;;;;;;63.00;49.00;;;;;-142.71;100.00;64517.53;3725590;37;21014;-60
2021/03/13 06:10:27;;;;;;;;;68.25;49.00;;;;;-142.71;100.00;64517.53;3724981;38;21038;-58
2021/03/13 06:12:53;;;;;;;;;71.25;57.25;;;;;-142.71;100.00;64517.53;3724899;37;21036;-59
2021/03/13 06:15:23;;;;;;;;;65.25;51.25;;;;;-142.71;100.00;64517.53;3725528;38;21022;-59
2021/03/13 06:18:01;;;;;;;;;63.25;47.50;;;;;-142.71;100.00;64517.53;3725739;38;20995;-59
2021/03/13 06:20:39;;;;;;;;;68.00;52.25;;;;;-142.71;100.00;64517.53;3724911;37;21002;-60
2021/03/13 06:23:33;;;;;;;;;64.00;49.50;;;;;-142.71;100.00;64517.53;3725611;37;20999;-60
2021/03/13 06:26:00;;;;;;;;;63.50;50.25;;;;;-142.71;100.00;64517.53;3725129;37;20968;-59
2021/03/13 06:28:30;;;;;;;;;62.75;49.25;;;;;-142.71;100.00;64517.53;3724851;38;21000;-61
2021/03/13 06:31:05;;;;;;;;;69.75;55.25;;;;;-142.71;100.00;64517.53;3725022;37;20976;-59
2021/03/13 06:33:34;;;;;;;;;65.75;49.50;;;;;-142.71;100.00;64517.53;3725136;38;20999;-59
2021/03/13 06:36:10;;;;;;;;;69.00;52.00;;;;;-142.71;100.00;64517.53;3725065;38;20993;-61
2021/03/13 06:38:39;;;;;;;;;67.75;53.00;;;;;-142.71;100.00;64517.53;3725365;37;20968;-60
2021/03/13 06:41:16;;;;;;;;;67.75;54.25;;;;;-142.71;100.00;64517.53;3725327;37;20963;-60
2021/03/13 06:43:44;;;;;;;;;68.50;53.00;;;;;-142.71;100.00;64517.53;3725010;38;20973;-60
2021/03/13 06:46:19;;;;;;;;;66.25;49.25;;;;;-142.71;100.00;64517.53;3724899;38;20961;-56
2021/03/13 06:49:05;;;;;;;;;58.00;48.75;;;;;-142.71;100.00;64517.53;3725448;37;20974;-61
2021/03/13 06:51:39;;;;;;;;;62.25;48.50;;;;;-142.71;100.00;64517.53;3725135;37;20921;-60
2021/03/13 06:54:12;;;;;;;;;62.50;47.50;;;;;-142.71;100.00;64517.53;3725683;37;20973;-60
2021/03/13 06:56:45;;;;;;;;;65.00;50.75;;;;;-142.71;100.00;64517.53;3725627;38;20949;-61
2021/03/13 06:59:49;;;;;;;;;65.25;49.50;;;;;-142.71;100.00;64517.53;3724812;38;21049;-61
2021/03/13 07:02:23;;;;;;;;;68.50;52.25;;;;;-142.71;100.00;64517.53;3725357;37;20944;-60
2021/03/13 07:04:50;;;;;;;;;58.75;47.00;;;;;-142.71;100.00;64517.53;3725329;38;20964;-61
2021/03/13 07:07:30;;;;;;;;;55.50;42.25;;;;;-142.71;100.00;64517.53;3725541;38;20945;-61
2021/03/13 07:10:01;;;;;;;;;54.50;44.00;;;;;-142.71;100.00;64517.53;3725478;38;20957;-60
2021/03/13 07:12:42;;;;;;;;;58.00;48.00;;;;;-142.71;100.00;64517.53;3725446;37;20955;-59
2021/03/13 07:15:28;;;;;;;;;58.75;43.00;;;;;-142.71;100.00;64517.53;3726036;38;20944;-62
2021/03/13 07:18:07;;;;;;;;;64.50;49.75;;;;;-142.71;100.00;64517.53;3725413;38;20945;-62
2021/03/13 07:20:36;;;;;;;;;59.50;45.25;;;;;-142.71;100.00;64517.53;3725326;37;20944;-61
2021/03/13 07:23:05;;;;;;;;;62.25;48.75;;;;;-142.71;100.00;64517.53;3725374;37;20920;-61
2021/03/13 07:25:34;;;;;;;;;65.25;50.00;;;;;-142.71;100.00;64517.53;3725525;37;20932;-60
2021/03/13 07:28:07;;;;;;;;;64.75;47.75;;;;;-142.71;100.00;64517.53;3725069;37;20917;-60
2021/03/13 07:30:35;;;;;;;;;61.50;50.00;;;;;-142.71;100.00;64517.53;3725130;37;20932;-63
2021/03/13 07:33:23;;;;;;;;;61.25;47.50;;;;;-142.71;100.00;64517.53;3725632;37;20925;-62
2021/03/13 07:35:51;;;;;;;;;61.50;47.75;;;;;-142.71;100.00;64517.53;3724744;38;20927;-62
2021/03/13 07:38:21;;;;;;;;;66.25;50.75;;;;;-142.71;100.00;64517.53;3725404;38;20918;-62
2021/03/13 07:40:48;;;;;;;;;74.25;54.00;;;;;-142.71;100.00;64517.53;3725129;38;20888;-55
2021/03/13 07:43:16;;;;;;;;;68.25;54.00;;;;;-142.71;100.00;64517.53;3725361;37;20885;-57
2021/03/13 07:45:46;;;;;;;;;65.50;52.50;;;;;-142.71;100.00;64517.53;3724848;38;20911;-63
2021/03/13 07:48:15;;;;;;;;;63.00;50.00;;;;;-142.71;100.00;64517.53;3725274;38;20907;-62
2021/03/13 07:50:46;;;;;;;;;70.50;51.25;;;;;-142.71;100.00;64517.53;3724983;37;20877;-60
2021/03/13 07:53:16;;;;;;;;;67.50;50.50;;;;;-142.71;100.00;64517.53;3725580;37;20869;-62
2021/03/13 07:55:49;;;;;;;;;70.75;51.25;;;;;-142.71;100.00;64517.53;3725077;38;20898;-61
2021/03/13 07:58:16;;;;;;;;;70.00;49.50;;;;;-142.71;100.00;64517.53;3724819;38;20882;-61
2021/03/13 08:00:45;;;;;;;;;67.25;53.00;;;;;-142.71;100.00;64517.53;3724893;37;20875;-60
2021/03/13 08:03:49;;;;;;;;;68.25;52.00;;;;;-142.71;100.00;64517.53;3724981;38;20863;-60
2021/03/13 08:06:18;;;;;;;;;62.25;50.00;;;;;-142.71;100.00;64517.53;3725491;38;20874;-64
2021/03/13 08:08:52;;;;;;;;;55.25;46.25;;;;;-142.71;100.00;64517.53;3725020;38;20844;-61
2021/03/13 08:11:21;;;;;;;;;63.50;50.25;;;;;-142.71;100.00;64517.53;3725895;38;20846;-61
2021/03/13 08:14:00;;;;;;;;;46.75;40.00;;;;;-142.71;100.00;64517.53;3724631;37;20840;-61
2021/03/13 08:16:38;;;;;;;;;69.75;52.00;;;;;-142.71;100.00;64517.53;3724893;38;20868;-61
2021/03/13 08:19:26;;;;;;;;;60.50;45.25;;;;;-142.71;100.00;64517.53;3724789;37;20851;-61
2021/03/13 08:22:16;;;;;;;;;66.25;50.75;;;;;-142.71;100.00;64517.53;3724827;38;20855;-61
2021/03/13 08:24:53;;;;;;;;;71.50;55.75;;;;;-142.71;100.00;64517.53;3725381;37;20849;-61
2021/03/13 08:27:41;;;;;;;;;73.25;55.25;;;;;-142.71;100.00;64517.53;3725249;37;20840;-60
2021/03/13 08:30:24;;;;;;;;;68.50;52.50;;;;;-142.71;100.00;64517.53;3724952;37;17891;-62
2021/03/13 08:33:02;;;;;;;;;66.00;51.75;;;;;-142.71;100.00;64517.53;3725439;37;20854;-59
2021/03/13 08:35:49;;;;;;;;;69.00;53.75;;;;;-142.71;100.00;64517.53;3724957;38;20838;-62
2021/03/13 08:38:18;;;;;;;;;63.75;49.00;;;;;-142.71;100.00;64517.53;3724840;37;20812;-62
2021/03/13 08:40:50;;;;;;;;;55.75;41.00;;;;;-142.71;100.00;64517.53;3724782;38;20815;-62
2021/03/13 08:43:36;;;;;;;;;63.75;52.50;;;;;-142.71;100.00;64517.53;3724967;38;20821;-62
2021/03/13 08:46:06;;;;;;;;;54.75;45.50;;;;;-142.71;100.00;64517.53;3725901;37;20808;-62
2021/03/13 08:48:54;;;;;;;;;60.25;47.00;;;;;-142.71;100.00;64517.53;3725252;38;20803;-62
2021/03/13 08:51:22;;;;;;;;;60.00;47.50;;;;;-142.71;100.00;64517.53;3725227;37;20786;-62
2021/03/13 08:53:57;;;;;;;;;61.50;47.25;;;;;-142.71;100.00;64517.53;3725044;38;20815;-62
2021/03/13 08:56:47;;;;;;;;;56.75;44.50;;;;;-142.71;100.00;64517.53;3725815;38;20812;-62
2021/03/13 08:59:21;;;;;;;;;59.75;47.25;;;;;-142.71;100.00;64517.53;3725406;37;20803;-62
2021/03/13 09:02:13;;;;;;;;;63.75;50.25;;;;;-142.71;100.00;64517.53;3724854;37;20773;-60
2021/03/13 09:04:45;;;;;;;;;62.00;50.75;;;;;-142.71;100.00;64517.53;3725486;37;20790;-60
2021/03/13 09:07:12;;;;;;;;;67.50;52.25;;;;;-142.71;100.00;64517.53;3726594;38;20778;-60
2021/03/13 09:09:41;;;;;;;;;72.50;54.00;;;;;-142.71;100.00;64517.53;3725824;38;20783;-62
2021/03/13 09:12:12;;;;;;;;;66.00;52.25;;;;;-142.71;100.00;64517.53;3725534;38;20766;-61
2021/03/13 09:14:44;;;;;;;;;71.25;52.50;;;;;-142.71;100.00;64517.53;3726160;38;20776;-62
2021/03/13 09:17:12;;;;;;;;;68.00;53.50;;;;;-142.71;100.00;64517.53;3726023;38;20755;-61
2021/03/13 09:19:43;;;;;;;;;66.50;51.00;;;;;-142.71;100.00;64517.53;3725638;37;20774;-62
2021/03/13 09:22:13;;;;;;;;;75.75;57.25;;;;;-142.71;100.00;64517.53;3726605;37;20769;-62
2021/03/13 09:24:40;;;;;;;;;68.50;53.00;;;;;-142.71;100.00;64517.53;3725589;37;20765;-62
2021/03/13 09:27:09;;;;;;;;;70.75;53.75;;;;;-142.71;100.00;64517.53;3732357;37;20769;-61
2021/03/13 09:29:41;;;;;;;;;70.00;53.25;;;;;-142.71;100.00;64517.53;3738149;38;20783;-60
2021/03/13 09:32:10;;;;;;;;;63.00;50.25;;;;;-142.71;100.00;64517.53;3732543;37;20741;-62
2021/03/13 09:34:42;;;;;;;;;58.25;45.00;;;;;-142.71;100.00;64517.53;3729722;38;20745;-61
2021/03/13 09:37:27;;;;;;;;;58.25;48.25;;;;;-142.71;100.00;64517.53;3738343;38;20769;-60
2021/03/13 09:40:18;;;;;;;;;60.25;47.00;;;;;-142.71;100.00;64517.53;3738564;38;20791;-62
2021/03/13 09:42:51;;;;;;;;;63.50;48.25;;;;;-142.71;100.00;64517.53;3728653;38;20740;-61
2021/03/13 09:45:29;;;;;;;;;56.00;45.00;;;;;-142.71;100.00;64517.53;3730776;38;20738;-60
2021/03/13 09:47:59;;;;;;;;;55.25;44.50;;;;;-142.71;100.00;64517.53;3726326;38;20720;-61
2021/03/13 09:50:40;;;;;;;;;54.50;42.25;;;;;-142.71;100.00;64517.53;3725434;38;20735;-60
2021/03/13 09:53:14;;;;;;;;;58.75;44.50;;;;;-142.71;100.00;64517.53;3725746;37;20727;-62
2021/03/13 09:55:46;;;;;;;;;62.25;49.50;;;;;-142.71;100.00;64517.53;3724902;38;21065;-60
2021/03/13 09:58:19;;;;;;;;;59.25;44.25;;;;;-142.71;100.00;64517.53;3725439;38;20731;-62
2021/03/13 10:00:46;;;;;;;;;63.25;49.00;;;;;-142.71;100.00;64517.53;3725015;37;20743;-61
2021/03/13 10:03:17;;;;;;;;;59.75;48.50;;;;;-142.71;100.00;64517.53;3725491;38;20740;-62
2021/03/13 10:05:45;;;;;;;;;58.75;46.00;;;;;-142.71;100.00;64517.53;3725062;37;20717;-60
2021/03/13 10:08:14;;;;;;;;;56.50;46.25;;;;;-142.71;100.00;64517.53;3725067;38;20722;-61
2021/03/13 10:10:47;;;;;;;;;55.00;45.50;;;;;-142.71;100.00;64517.53;3725680;37;20699;-61
2021/03/13 10:13:16;;;;;;;;;58.25;46.25;;;;;-142.71;100.00;64517.53;3725101;37;20691;-61
2021/03/13 10:15:43;;;;;;;;;55.25;45.00;;;;;-142.71;100.00;64517.53;3725486;37;20692;-61
2021/03/13 10:18:13;;;;;;;;;62.50;48.00;;;;;-142.71;100.00;64517.53;3725227;37;20684;-61
2021/03/13 10:20:56;;;;;;;;;67.75;53.75;;;;;-142.71;100.00;64517.53;3725169;37;20682;-61
2021/03/13 10:23:29;;;;;;;;;61.00;46.75;;;;;-142.71;100.00;64517.53;3724707;37;20685;-60
2021/03/13 10:26:17;;;;;;;;;53.75;45.75;;;;;-142.71;100.00;64517.53;3725211;37;20709;-62
2021/03/13 10:28:52;;;;;;;;;56.25;43.00;;;;;-142.71;100.00;64517.53;3724886;37;20661;-60
2021/03/13 10:31:26;;;;;;;;;51.75;43.50;;;;;-142.71;100.00;64517.53;3725263;38;20657;-61
2021/03/13 10:33:55;;;;;;;;;44.75;35.25;;;;;-142.71;100.00;64517.53;3724834;37;20669;-61
2021/03/13 10:36:42;;;;;;;;;41.50;36.00;;;;;-142.71;100.00;64517.53;3724843;38;20767;-61
2021/03/13 10:39:09;;;;;;;;;39.75;33.25;;;;;-142.71;100.00;64517.53;3725396;37;20541;-60
2021/03/13 10:41:35;;;;;;;;;35.50;31.50;;;;;-142.71;100.00;64517.53;3725231;38;20537;-61
2021/03/13 10:44:01;;;;;;;;;28.50;26.00;;;;;-142.71;100.00;64517.53;3725506;38;20576;-61
2021/03/13 10:46:38;;;;;;;;;33.25;30.25;;;;;-142.71;100.00;64517.53;3725538;38;20524;-62
2021/03/13 10:49:07;;;;;;;;;27.50;22.25;;;;;-142.71;100.00;64517.53;3724961;38;20526;-61
2021/03/13 10:51:42;;;;;;;;;25.50;21.25;;;;;-142.71;100.00;64517.53;3724897;38;20532;-61
2021/03/13 10:54:28;;;;;;;;;20.25;20.00;;;;;-142.71;100.00;64517.53;3725055;38;20530;-62
2021/03/13 10:56:58;;;;;;;;;14.00;13.50;;;;;-142.71;100.00;64517.53;3724868;37;20534;-61
2021/03/13 10:59:31;;;;;;;;;14.50;13.50;;;;;-142.71;100.00;64517.53;3724865;37;20493;-61
2021/03/13 11:01:57;;;;;;;;;18.50;17.00;;;;;-142.71;100.00;64517.53;3725546;37;20508;-59
2021/03/13 11:04:24;;;;;;;;;17.75;17.25;;;;;-142.71;100.00;64517.53;3725472;37;20491;-60
2021/03/13 11:06:55;;;;;;;;;21.25;21.00;;;;;-142.71;100.00;64517.53;3724911;38;20493;-62
2021/03/13 11:09:25;;;;;;;;;22.00;20.00;;;;;-142.71;100.00;64517.53;3725134;37;20492;-62
2021/03/13 11:11:52;;;;;;;;;23.75;19.75;;;;;-142.71;100.00;64517.53;3725043;37;20508;-62
2021/03/13 11:14:18;;;;;;;;;24.00;22.25;;;;;-142.71;100.00;64517.53;3725232;37;20489;-60
2021/03/13 11:16:45;;;;;;;;;20.50;18.75;;;;;-142.71;100.00;64517.53;3725647;37;20482;-61